createdAt,value
2018-08-31T00:01:25.613Z,53.30
2018-08-31T00:06:03.442Z,52.50
2018-08-31T00:08:42.990Z,52.40
2018-08-31T00:11:21.955Z,52.40
2018-08-31T00:13:50.305Z,52.30
2018-08-31T00:16:18.751Z,52.60
2018-08-31T00:18:47.150Z,53.50
2018-08-31T00:21:15.556Z,54.20
2018-08-31T00:26:02.455Z,54.60
2018-08-31T00:28:42.067Z,52.90
2018-08-31T00:31:21.692Z,51.20
2018-08-31T00:34:03.114Z,51.60
2018-08-31T00:36:43.912Z,51.60
2018-08-31T00:40:22.764Z,52.00
2018-08-31T00:43:02.366Z,52.90
2018-08-31T00:45:32.931Z,54.70
2018-08-31T00:48:01.869Z,55.60
2018-08-31T00:50:30.576Z,56.10
2018-08-31T00:52:59.238Z,56.30
2018-08-31T00:55:27.774Z,56.30
2018-08-31T00:57:56.171Z,56.30
2018-08-31T01:00:24.529Z,56.30
2018-08-31T01:02:52.903Z,56.30
2018-08-31T01:05:21.272Z,56.30
2018-08-31T01:07:49.958Z,55.50
2018-08-31T01:10:22.764Z,55.40
2018-08-31T01:12:51.609Z,55.70
2018-08-31T01:15:19.994Z,56.00
2018-08-31T01:17:48.380Z,56.20
2018-08-31T01:20:16.827Z,56.20
2018-08-31T01:22:45.186Z,55.40
2018-08-31T01:25:13.554Z,55.10
2018-08-31T01:27:42.182Z,54.80
2018-08-31T01:30:10.663Z,54.30
2018-08-31T01:32:39.176Z,54.50
2018-08-31T01:35:07.581Z,54.90
2018-08-31T01:37:35.946Z,55.10
2018-08-31T01:40:04.404Z,55.40
2018-08-31T01:42:32.856Z,56.10
2018-08-31T01:45:01.469Z,56.00
2018-08-31T01:47:29.850Z,56.50
2018-08-31T01:49:58.186Z,56.90
2018-08-31T01:52:26.696Z,57.20
2018-08-31T01:54:55.138Z,57.30
2018-08-31T01:57:23.512Z,56.90
2018-08-31T01:59:51.838Z,57.10
2018-08-31T02:02:22.378Z,58.00
2018-08-31T02:04:50.754Z,57.10
2018-08-31T02:07:19.144Z,57.20
2018-08-31T02:09:47.525Z,57.40
2018-08-31T02:12:15.922Z,57.80
2018-08-31T02:14:44.246Z,57.80
2018-08-31T02:17:12.663Z,57.40
2018-08-31T02:19:40.987Z,57.50
2018-08-31T02:22:09.384Z,57.40
2018-08-31T02:24:38.010Z,57.50
2018-08-31T02:27:06.371Z,57.50
2018-08-31T02:29:34.705Z,58.20
2018-08-31T02:32:03.560Z,57.60
2018-08-31T02:34:31.909Z,57.40
2018-08-31T02:37:01.054Z,57.20
2018-08-31T02:39:29.581Z,56.60
2018-08-31T02:41:57.909Z,56.90
2018-08-31T02:44:26.252Z,55.90
2018-08-31T02:46:54.604Z,55.70
2018-08-31T02:49:22.899Z,56.10
2018-08-31T02:51:51.241Z,56.30
2018-08-31T02:54:19.664Z,56.60
2018-08-31T02:56:48.006Z,57.30
2018-08-31T02:59:16.294Z,58.10
2018-08-31T03:01:45.304Z,58.40
2018-08-31T03:04:13.698Z,58.80
2018-08-31T03:06:42.079Z,58.90
2018-08-31T03:09:10.544Z,58.30
2018-08-31T03:11:39.116Z,58.40
2018-08-31T03:14:07.646Z,58.40
2018-08-31T03:16:36.132Z,58.40
2018-08-31T03:19:04.482Z,57.70
2018-08-31T03:21:32.800Z,57.10
2018-08-31T03:24:01.180Z,57.10
2018-08-31T03:26:29.532Z,57.40
2018-08-31T03:28:57.984Z,57.80
2018-08-31T03:31:26.332Z,58.30
2018-08-31T03:33:54.677Z,59.30
2018-08-31T03:36:23.040Z,59.40
2018-08-31T03:38:51.442Z,59.00
2018-08-31T03:41:19.735Z,58.80
2018-08-31T03:43:48.187Z,58.50
2018-08-31T03:46:16.556Z,58.30
2018-08-31T03:48:44.992Z,58.80
2018-08-31T03:51:13.322Z,59.00
2018-08-31T03:53:42.507Z,59.30
2018-08-31T03:56:10.974Z,59.30
2018-08-31T03:58:39.317Z,59.30
2018-08-31T04:01:07.637Z,59.20
2018-08-31T04:03:36.705Z,59.30
2018-08-31T04:06:05.098Z,59.60
2018-08-31T04:08:33.607Z,59.90
2018-08-31T04:11:01.973Z,59.90
2018-08-31T04:13:30.523Z,59.90
2018-08-31T04:15:58.951Z,59.90
2018-08-31T04:18:27.294Z,59.90
2018-08-31T04:20:55.643Z,59.80
2018-08-31T04:23:24.025Z,59.80
2018-08-31T04:25:52.365Z,59.80
2018-08-31T04:28:20.839Z,59.90
2018-08-31T04:30:49.185Z,59.40
2018-08-31T04:33:17.587Z,59.50
2018-08-31T04:35:45.933Z,59.20
2018-08-31T04:38:14.279Z,59.00
2018-08-31T04:40:42.650Z,58.70
2018-08-31T04:43:11.523Z,58.70
2018-08-31T04:45:39.845Z,59.20
2018-08-31T04:48:08.185Z,58.00
2018-08-31T04:50:37.292Z,58.10
2018-08-31T04:53:06.306Z,58.00
2018-08-31T04:55:34.655Z,57.70
2018-08-31T04:58:02.999Z,57.20
2018-08-31T05:00:31.349Z,56.70
2018-08-31T05:02:59.691Z,56.50
2018-08-31T05:05:28.123Z,56.20
2018-08-31T05:07:56.468Z,56.40
2018-08-31T05:10:24.859Z,56.60
2018-08-31T05:12:53.273Z,56.70
2018-08-31T05:15:21.723Z,56.80
2018-08-31T05:17:50.075Z,57.10
2018-08-31T05:20:18.471Z,56.80
2018-08-31T05:22:47.503Z,57.10
2018-08-31T05:25:15.868Z,57.40
2018-08-31T05:27:44.960Z,57.30
2018-08-31T05:30:13.267Z,57.10
2018-08-31T05:32:41.843Z,56.80
2018-08-31T05:35:10.220Z,57.10
2018-08-31T05:37:38.669Z,56.30
2018-08-31T05:40:07.154Z,56.00
2018-08-31T05:42:35.519Z,55.90
2018-08-31T05:45:03.867Z,55.00
2018-08-31T05:47:32.239Z,55.30
2018-08-31T05:50:00.570Z,56.10
2018-08-31T05:52:29.061Z,55.70
2018-08-31T05:54:57.435Z,55.50
2018-08-31T05:57:25.789Z,55.20
2018-08-31T05:59:54.125Z,55.60
2018-08-31T06:02:22.697Z,55.20
2018-08-31T06:04:51.060Z,54.50
2018-08-31T06:07:19.399Z,54.80
2018-08-31T06:09:47.931Z,55.20
2018-08-31T06:12:16.257Z,54.50
2018-08-31T06:14:44.601Z,54.70
2018-08-31T06:17:13.000Z,55.30
2018-08-31T06:19:41.384Z,55.40
2018-08-31T06:22:09.731Z,55.40
2018-08-31T06:24:38.845Z,56.10
2018-08-31T06:27:07.231Z,55.50
2018-08-31T06:29:35.630Z,53.70
2018-08-31T06:32:03.967Z,52.60
2018-08-31T06:34:32.919Z,54.00
2018-08-31T06:37:01.256Z,50.70
2018-08-31T06:39:29.730Z,50.90
2018-08-31T06:41:58.077Z,50.50
2018-08-31T06:44:26.451Z,50.80
2018-08-31T06:46:54.820Z,50.20
2018-08-31T06:49:26.921Z,50.10
2018-08-31T06:51:55.310Z,50.00
2018-08-31T06:54:23.664Z,49.90
2018-08-31T06:56:52.031Z,49.20
2018-08-31T06:59:20.362Z,49.50
2018-08-31T07:01:48.828Z,49.00
2018-08-31T07:04:17.240Z,48.20
2018-08-31T07:06:45.584Z,47.40
2018-08-31T07:09:13.963Z,47.20
2018-08-31T07:11:42.272Z,46.70
2018-08-31T07:14:10.662Z,46.30
2018-08-31T07:16:39.084Z,46.40
2018-08-31T07:19:07.532Z,46.50
2018-08-31T07:21:36.480Z,46.60
2018-08-31T07:24:05.024Z,46.80
2018-08-31T07:26:33.471Z,46.20
2018-08-31T07:29:01.699Z,45.80
2018-08-31T07:31:30.420Z,45.60
2018-08-31T07:33:58.927Z,44.50
2018-08-31T07:36:27.323Z,45.50
2018-08-31T07:38:55.617Z,45.00
2018-08-31T07:41:23.948Z,44.40
2018-08-31T07:43:52.274Z,44.70
2018-08-31T07:46:20.632Z,45.20
2018-08-31T07:48:48.994Z,44.90
2018-08-31T07:51:17.320Z,44.60
2018-08-31T07:53:45.700Z,44.30
2018-08-31T07:56:14.072Z,44.50
2018-08-31T07:58:42.633Z,43.90
2018-08-31T08:01:11.039Z,43.40
2018-08-31T08:03:39.420Z,43.80
2018-08-31T08:06:07.785Z,43.30
2018-08-31T08:08:36.110Z,43.50
2018-08-31T08:11:04.658Z,42.60
2018-08-31T08:13:33.013Z,43.70
2018-08-31T08:16:01.381Z,43.00
2018-08-31T08:18:29.826Z,43.40
2018-08-31T08:20:58.212Z,42.90
2018-08-31T08:23:26.753Z,43.00
2018-08-31T08:25:55.172Z,43.30
2018-08-31T08:28:30.900Z,43.90
2018-08-31T08:30:59.297Z,43.40
2018-08-31T08:33:27.812Z,43.80
2018-08-31T08:35:56.189Z,43.40
2018-08-31T08:38:24.526Z,44.00
2018-08-31T08:40:52.913Z,44.20
2018-08-31T08:43:21.288Z,44.80
2018-08-31T08:45:49.633Z,43.10
2018-08-31T08:48:18.098Z,44.30
2018-08-31T08:50:46.383Z,43.60
2018-08-31T08:53:14.707Z,43.10
2018-08-31T08:55:43.079Z,41.90
2018-08-31T08:58:12.218Z,41.30
2018-08-31T09:00:40.546Z,40.70
2018-08-31T09:03:09.623Z,41.10
2018-08-31T09:05:38.036Z,40.30
2018-08-31T09:08:06.912Z,40.90
2018-08-31T09:10:35.297Z,39.90
2018-08-31T09:13:03.670Z,40.50
2018-08-31T09:15:32.158Z,41.00
2018-08-31T09:18:00.488Z,40.60
2018-08-31T09:20:28.864Z,39.40
2018-08-31T09:22:57.322Z,39.20
2018-08-31T09:25:25.814Z,39.00
2018-08-31T09:27:55.290Z,39.90
2018-08-31T09:30:28.956Z,39.90
2018-08-31T09:32:57.351Z,39.40
2018-08-31T09:35:25.708Z,38.80
2018-08-31T09:37:54.069Z,39.70
2018-08-31T09:40:22.514Z,38.50
2018-08-31T09:42:50.882Z,39.40
2018-08-31T09:45:19.290Z,37.70
2018-08-31T09:47:47.603Z,37.70
2018-08-31T09:50:17.528Z,37.30
2018-08-31T09:52:45.893Z,37.20
2018-08-31T09:55:14.241Z,37.60
2018-08-31T09:57:42.602Z,37.00
2018-08-31T10:00:10.986Z,37.10
2018-08-31T10:02:44.400Z,37.70
2018-08-31T10:05:12.747Z,37.30
2018-08-31T10:07:41.106Z,36.40
2018-08-31T10:10:09.663Z,36.50
2018-08-31T10:12:38.050Z,36.30
2018-08-31T10:15:06.427Z,36.90
2018-08-31T10:17:34.737Z,36.20
2018-08-31T10:20:03.133Z,35.60
2018-08-31T10:22:31.482Z,35.80
2018-08-31T10:24:59.943Z,34.10
2018-08-31T10:27:28.297Z,34.30
2018-08-31T10:29:56.650Z,35.70
2018-08-31T10:32:25.010Z,36.30
2018-08-31T10:34:53.371Z,35.80
2018-08-31T10:37:21.748Z,36.00
2018-08-31T10:39:50.090Z,34.90
2018-08-31T10:42:18.501Z,35.20
2018-08-31T10:44:47.415Z,32.50
2018-08-31T10:47:16.328Z,34.10
2018-08-31T10:49:44.688Z,34.80
2018-08-31T10:52:13.069Z,34.00
2018-08-31T10:54:42.219Z,33.60
2018-08-31T10:57:10.548Z,34.60
2018-08-31T10:59:38.927Z,35.30
2018-08-31T11:02:07.282Z,35.30
2018-08-31T11:04:35.628Z,35.30
2018-08-31T11:07:04.480Z,35.30
2018-08-31T11:09:32.815Z,35.40
2018-08-31T11:12:01.153Z,35.40
2018-08-31T11:14:29.516Z,35.30
2018-08-31T11:16:57.870Z,35.10
2018-08-31T11:19:26.307Z,34.70
2018-08-31T11:21:54.665Z,35.10
2018-08-31T11:24:23.043Z,34.50
2018-08-31T11:26:51.375Z,34.40
2018-08-31T11:29:19.712Z,34.40
2018-08-31T11:31:48.136Z,34.50
2018-08-31T11:34:16.493Z,34.50
2018-08-31T11:36:44.879Z,34.60
2018-08-31T11:39:13.413Z,34.70
2018-08-31T11:41:41.775Z,35.20
2018-08-31T11:44:10.516Z,34.40
2018-08-31T11:46:39.334Z,34.30
2018-08-31T11:49:07.670Z,34.80
2018-08-31T11:51:35.999Z,32.50
2018-08-31T11:54:04.365Z,31.30
2018-08-31T11:56:32.729Z,31.40
2018-08-31T11:59:01.166Z,30.90
2018-08-31T12:01:29.555Z,31.60
2018-08-31T12:03:57.852Z,31.70
2018-08-31T12:06:26.235Z,32.10
2018-08-31T12:08:54.560Z,30.80
2018-08-31T12:11:22.971Z,30.90
2018-08-31T12:13:51.604Z,29.90
2018-08-31T12:16:19.993Z,30.90
2018-08-31T12:18:48.542Z,30.60
2018-08-31T12:21:16.884Z,30.00
2018-08-31T12:23:45.240Z,31.00
2018-08-31T12:26:13.583Z,30.00
2018-08-31T12:28:41.950Z,30.10
2018-08-31T12:31:10.378Z,30.90
2018-08-31T12:33:38.849Z,30.20
2018-08-31T12:36:07.223Z,29.70
2018-08-31T12:38:35.652Z,29.50
2018-08-31T12:41:03.995Z,29.40
2018-08-31T12:43:32.371Z,29.10
2018-08-31T12:46:00.833Z,28.60
2018-08-31T12:48:29.181Z,28.60
2018-08-31T12:50:57.583Z,29.20
2018-08-31T12:53:26.024Z,29.80
2018-08-31T12:55:54.454Z,30.30
2018-08-31T12:58:23.370Z,28.60
2018-08-31T13:00:51.691Z,28.60
2018-08-31T13:03:20.090Z,28.00
2018-08-31T13:05:48.403Z,28.60
2018-08-31T13:08:16.960Z,28.10
2018-08-31T13:10:45.323Z,28.50
2018-08-31T13:13:13.720Z,28.70
2018-08-31T13:15:42.081Z,28.10
2018-08-31T13:18:10.474Z,28.70
2018-08-31T13:20:38.927Z,27.10
2018-08-31T13:23:07.355Z,28.20
2018-08-31T13:25:35.709Z,27.10
2018-08-31T13:28:04.049Z,27.60
2018-08-31T13:30:32.419Z,27.60
2018-08-31T13:33:00.786Z,26.50
2018-08-31T13:35:29.250Z,28.00
2018-08-31T13:37:58.173Z,27.30
2018-08-31T13:40:26.483Z,26.90
2018-08-31T13:42:54.822Z,26.30
2018-08-31T13:45:23.927Z,26.10
2018-08-31T13:47:52.394Z,26.50
2018-08-31T13:50:20.753Z,27.00
2018-08-31T13:52:49.087Z,27.70
2018-08-31T13:55:18.644Z,27.70
2018-08-31T13:57:47.035Z,28.20
2018-08-31T14:00:15.368Z,28.40
2018-08-31T14:02:43.730Z,27.50
2018-08-31T14:05:12.114Z,27.90
2018-08-31T14:07:40.460Z,28.70
2018-08-31T14:10:09.202Z,28.50
2018-08-31T14:12:37.556Z,28.40
2018-08-31T14:15:05.967Z,28.10
2018-08-31T14:17:34.306Z,28.70
2018-08-31T14:20:02.683Z,28.50
2018-08-31T14:22:31.740Z,28.20
2018-08-31T14:25:00.122Z,28.60
2018-08-31T14:27:28.506Z,28.80
2018-08-31T14:29:57.031Z,28.70
2018-08-31T14:32:25.210Z,28.60
2018-08-31T14:34:53.586Z,28.60
2018-08-31T14:37:21.936Z,29.20
2018-08-31T14:39:50.328Z,29.20
2018-08-31T14:42:18.736Z,28.90
2018-08-31T14:44:47.093Z,29.00
2018-08-31T14:47:15.553Z,28.30
2018-08-31T14:49:43.941Z,29.60
2018-08-31T14:52:12.311Z,29.70
2018-08-31T14:54:40.645Z,29.30
2018-08-31T14:57:09.034Z,29.40
2018-08-31T14:59:37.388Z,29.60
2018-08-31T15:02:05.816Z,29.40
2018-08-31T15:04:34.151Z,30.00
2018-08-31T15:07:02.604Z,29.60
2018-08-31T15:09:31.025Z,30.40
2018-08-31T15:11:59.384Z,30.90
2018-08-31T15:14:27.711Z,31.20
2018-08-31T15:16:56.073Z,31.10
2018-08-31T15:19:24.443Z,31.00
2018-08-31T15:21:52.778Z,31.00
2018-08-31T15:24:21.334Z,31.10
2018-08-31T15:26:49.772Z,31.00
2018-08-31T15:29:18.117Z,30.90
2018-08-31T15:31:46.653Z,31.70
2018-08-31T15:34:14.975Z,31.50
2018-08-31T15:36:43.522Z,30.90
2018-08-31T15:39:12.609Z,31.10
2018-08-31T15:41:40.959Z,30.90
2018-08-31T15:44:09.484Z,31.90
2018-08-31T15:46:37.872Z,31.90
2018-08-31T15:49:06.258Z,31.80
2018-08-31T15:51:34.618Z,31.60
2018-08-31T15:54:02.991Z,32.40
2018-08-31T15:56:31.358Z,32.30
2018-08-31T15:58:59.723Z,32.10
2018-08-31T16:01:28.758Z,32.20
2018-08-31T16:03:57.234Z,32.20
2018-08-31T16:06:25.693Z,32.60
2018-08-31T16:08:54.039Z,31.30
2018-08-31T16:11:22.366Z,32.40
2018-08-31T16:13:51.340Z,33.30
2018-08-31T16:16:19.725Z,33.30
2018-08-31T16:18:48.104Z,33.20
2018-08-31T16:21:16.422Z,34.00
2018-08-31T16:23:44.816Z,33.00
2018-08-31T16:26:13.231Z,32.90
2018-08-31T16:28:41.579Z,32.70
2018-08-31T16:31:10.672Z,32.60
2018-08-31T16:33:39.053Z,32.50
2018-08-31T16:36:08.175Z,32.60
2018-08-31T16:38:36.558Z,32.80
2018-08-31T16:41:04.936Z,33.40
2018-08-31T16:43:33.313Z,32.90
2018-08-31T16:46:01.712Z,32.40
2018-08-31T16:48:30.692Z,32.40
2018-08-31T16:50:59.018Z,33.00
2018-08-31T16:53:27.358Z,33.10
2018-08-31T16:55:55.742Z,33.20
2018-08-31T16:58:24.135Z,32.30
2018-08-31T17:00:52.515Z,32.50
2018-08-31T17:03:20.956Z,32.70
2018-08-31T17:05:49.351Z,33.60
2018-08-31T17:08:17.703Z,33.90
2018-08-31T17:10:46.046Z,34.50
2018-08-31T17:13:14.421Z,34.40
2018-08-31T17:15:42.763Z,35.50
2018-08-31T17:18:11.243Z,35.10
2018-08-31T17:20:39.604Z,36.10
2018-08-31T17:23:08.671Z,35.30
2018-08-31T17:25:37.165Z,34.90
2018-08-31T17:28:10.855Z,35.10
2018-08-31T17:30:39.701Z,35.50
2018-08-31T17:33:13.265Z,35.70
2018-08-31T17:35:46.985Z,35.50
2018-08-31T17:38:15.899Z,35.50
2018-08-31T17:40:44.256Z,34.70
2018-08-31T17:43:12.667Z,34.70
2018-08-31T17:45:41.135Z,34.20
2018-08-31T17:48:09.556Z,34.20
2018-08-31T17:50:38.120Z,34.70
2018-08-31T17:53:06.642Z,34.20
2018-08-31T17:55:35.041Z,34.50
2018-08-31T17:58:03.428Z,34.20
2018-08-31T18:00:32.053Z,34.40
2018-08-31T18:03:00.402Z,34.70
2018-08-31T18:05:28.813Z,34.80
2018-08-31T18:07:57.169Z,35.60
2018-08-31T18:10:26.239Z,36.70
2018-08-31T18:12:54.610Z,37.10
2018-08-31T18:15:23.085Z,37.40
2018-08-31T18:17:51.423Z,37.20
2018-08-31T18:20:19.826Z,37.00
2018-08-31T18:22:48.286Z,36.80
2018-08-31T18:25:16.744Z,36.00
2018-08-31T18:27:45.033Z,35.90
2018-08-31T18:30:13.959Z,35.80
2018-08-31T18:32:42.354Z,36.60
2018-08-31T18:35:10.708Z,36.00
2018-08-31T18:37:39.142Z,35.60
2018-08-31T18:40:08.096Z,35.30
2018-08-31T18:42:36.465Z,35.80
2018-08-31T18:45:04.847Z,35.40
2018-08-31T18:47:33.253Z,35.30
2018-08-31T18:50:01.676Z,36.00
2018-08-31T18:52:30.193Z,36.30
2018-08-31T18:54:58.581Z,36.20
2018-08-31T18:57:26.946Z,37.00
2018-08-31T18:59:55.451Z,37.80
2018-08-31T19:02:23.874Z,38.70
2018-08-31T19:04:52.216Z,37.80
2018-08-31T19:07:20.576Z,38.60
2018-08-31T19:09:49.481Z,39.40
2018-08-31T19:12:17.821Z,38.50
2018-08-31T19:14:46.293Z,38.40
2018-08-31T19:17:14.675Z,37.40
2018-08-31T19:19:43.060Z,36.70
2018-08-31T19:22:11.692Z,36.70
2018-08-31T19:24:40.107Z,36.50
2018-08-31T19:27:08.489Z,37.40
2018-08-31T19:29:37.210Z,37.40
2018-08-31T19:32:06.555Z,36.90
2018-08-31T19:34:35.789Z,36.90
2018-08-31T19:37:04.223Z,36.90
2018-08-31T19:39:32.851Z,36.40
2018-08-31T19:42:01.193Z,37.00
2018-08-31T19:44:29.675Z,38.20
2018-08-31T19:47:04.913Z,38.10
2018-08-31T19:49:33.358Z,38.10
2018-08-31T19:52:01.723Z,38.00
2018-08-31T19:54:30.587Z,38.80
2018-08-31T19:56:59.565Z,37.90
2018-08-31T19:59:28.197Z,37.90
2018-08-31T20:01:56.556Z,37.80
2018-08-31T20:04:24.953Z,37.80
2018-08-31T20:06:53.323Z,37.80
2018-08-31T20:09:21.835Z,37.80
2018-08-31T20:11:50.528Z,37.80
2018-08-31T20:14:18.910Z,37.80
2018-08-31T20:16:47.260Z,37.70
2018-08-31T20:19:15.623Z,37.90
2018-08-31T20:21:44.614Z,38.20
2018-08-31T20:24:12.964Z,37.70
2018-08-31T20:26:41.307Z,38.70
2018-08-31T20:29:09.674Z,38.90
2018-08-31T20:31:38.022Z,37.70
2018-08-31T20:34:06.424Z,38.00
2018-08-31T20:36:34.896Z,38.30
2018-08-31T20:39:04.434Z,39.20
2018-08-31T20:41:32.792Z,40.10
2018-08-31T20:44:01.133Z,40.50
2018-08-31T20:46:29.536Z,40.70
2018-08-31T20:48:58.143Z,40.20
2018-08-31T20:51:26.535Z,40.40
2018-08-31T20:53:54.932Z,41.50
2018-08-31T20:56:23.322Z,42.20
2018-08-31T20:58:51.704Z,43.00
2018-08-31T21:01:20.035Z,44.10
2018-08-31T21:03:48.499Z,44.50
2018-08-31T21:06:16.943Z,44.80
2018-08-31T21:08:51.960Z,45.40
2018-08-31T21:11:20.352Z,46.00
2018-08-31T21:13:48.686Z,46.60
2018-08-31T21:16:17.073Z,47.30
2018-08-31T21:18:46.017Z,47.30
2018-08-31T21:21:14.378Z,47.20
2018-08-31T21:23:42.714Z,47.20
2018-08-31T21:26:11.234Z,47.10
2018-08-31T21:28:39.584Z,46.20
2018-08-31T21:31:08.059Z,46.50
2018-08-31T21:33:36.536Z,47.00
2018-08-31T21:36:04.907Z,47.00
2018-08-31T21:38:34.006Z,47.10
2018-08-31T21:41:02.390Z,47.10
2018-08-31T21:43:30.718Z,48.00
2018-08-31T21:45:59.096Z,48.10
2018-08-31T21:48:27.413Z,48.10
2018-08-31T21:50:55.837Z,48.40
2018-08-31T21:53:24.177Z,48.70
2018-08-31T21:55:52.518Z,48.90
2018-08-31T21:58:20.889Z,48.90
2018-08-31T22:00:49.300Z,48.80
2018-08-31T22:03:17.740Z,49.00
2018-08-31T22:05:47.656Z,48.90
2018-08-31T22:08:16.961Z,49.10
2018-08-31T22:10:45.351Z,48.90
2018-08-31T22:13:13.718Z,48.60
2018-08-31T22:15:42.138Z,48.00
2018-08-31T22:18:10.583Z,46.30
2018-08-31T22:20:39.047Z,44.70
2018-08-31T22:23:07.413Z,44.40
2018-08-31T22:25:35.768Z,44.20
2018-08-31T22:28:04.113Z,44.60
2018-08-31T22:30:32.488Z,45.00
2018-08-31T22:33:01.050Z,45.60
2018-08-31T22:35:29.454Z,45.70
2018-08-31T22:37:57.784Z,45.30
2018-08-31T22:40:26.109Z,45.90
2018-08-31T22:42:54.539Z,46.20
2018-08-31T22:45:22.879Z,46.10
2018-08-31T22:47:51.249Z,46.10
2018-08-31T22:50:20.923Z,46.10
2018-08-31T22:52:49.274Z,45.80
2018-08-31T22:55:17.637Z,45.30
2018-08-31T22:57:46.078Z,45.40
2018-08-31T23:00:14.404Z,46.30
2018-08-31T23:02:42.748Z,46.00
2018-08-31T23:05:11.099Z,46.10
2018-08-31T23:08:10.024Z,46.20
2018-08-31T23:10:38.434Z,46.70
2018-08-31T23:13:07.587Z,46.60
2018-08-31T23:15:35.887Z,47.20
2018-08-31T23:18:04.536Z,47.20
2018-08-31T23:20:33.628Z,46.70
2018-08-31T23:23:07.754Z,46.70
2018-08-31T23:25:41.447Z,47.60
2018-08-31T23:28:09.808Z,47.20
2018-08-31T23:30:38.143Z,47.40
2018-08-31T23:33:06.548Z,47.40
2018-08-31T23:35:35.049Z,46.80
2018-08-31T23:38:03.462Z,46.40
2018-08-31T23:40:31.782Z,46.30
2018-08-31T23:43:00.478Z,46.40
2018-08-31T23:45:28.890Z,46.80
2018-08-31T23:47:57.323Z,47.00
2018-08-31T23:50:25.704Z,47.20
2018-08-31T23:52:54.238Z,47.80
2018-08-31T23:55:22.582Z,48.20
2018-08-31T23:57:50.957Z,48.40
